createdAt,value
2023-05-05T00:00:49.354Z,24.14
2023-05-05T00:01:49.419Z,24.11
2023-05-05T00:02:49.517Z,24.12
2023-05-05T00:03:49.581Z,24.14
2023-05-05T00:04:49.547Z,24.14
2023-05-05T00:05:49.573Z,24.14
2023-05-05T00:06:49.626Z,24.12
2023-05-05T00:07:49.664Z,24.12
2023-05-05T00:08:49.751Z,24.14
2023-05-05T00:09:49.752Z,24.12
2023-05-05T00:10:49.791Z,24.11
2023-05-05T00:11:49.839Z,24.12
2023-05-05T00:12:49.905Z,24.14
2023-05-05T00:13:49.920Z,24.12
2023-05-05T00:14:49.978Z,24.12
2023-05-05T00:15:50.021Z,24.14
2023-05-05T00:16:50.070Z,24.11
2023-05-05T00:17:50.126Z,24.14
2023-05-05T00:18:50.142Z,24.10
2023-05-05T00:19:50.189Z,24.12
2023-05-05T00:20:50.249Z,24.14
2023-05-05T00:21:50.292Z,24.12
2023-05-05T00:22:50.295Z,24.14
2023-05-05T00:23:50.295Z,24.14
2023-05-05T00:24:50.303Z,24.12
2023-05-05T00:25:50.301Z,24.11
2023-05-05T00:26:50.302Z,24.10
2023-05-05T00:27:50.308Z,24.10
2023-05-05T00:28:50.331Z,24.11
2023-05-05T00:29:50.311Z,24.11
2023-05-05T00:30:50.325Z,24.12
2023-05-05T00:31:50.324Z,24.11
2023-05-05T00:32:50.366Z,24.12
2023-05-05T00:33:50.347Z,24.11
2023-05-05T00:34:50.369Z,24.10
2023-05-05T00:35:50.363Z,24.11
2023-05-05T00:36:50.380Z,24.10
2023-05-05T00:37:50.425Z,24.11
2023-05-05T00:38:50.481Z,24.11
2023-05-05T00:39:50.526Z,24.11
2023-05-05T00:40:50.596Z,24.11
2023-05-05T00:41:50.630Z,24.11
2023-05-05T00:42:50.701Z,24.11
2023-05-05T00:43:50.720Z,24.12
2023-05-05T00:44:50.771Z,24.10
2023-05-05T00:45:50.815Z,24.11
2023-05-05T00:46:51.022Z,24.10
2023-05-05T00:47:50.934Z,24.10
2023-05-05T00:48:51.067Z,24.11
2023-05-05T00:49:50.992Z,24.10
2023-05-05T00:50:51.056Z,24.10
2023-05-05T00:51:51.090Z,24.11
2023-05-05T00:52:51.135Z,24.10
2023-05-05T00:53:51.182Z,24.08
2023-05-05T00:54:51.226Z,24.10
2023-05-05T00:55:51.276Z,24.08
2023-05-05T00:56:51.313Z,24.10
2023-05-05T00:57:51.365Z,24.08
2023-05-05T00:58:51.409Z,24.10
2023-05-05T00:59:51.454Z,24.08
2023-05-05T01:00:51.495Z,24.10
2023-05-05T01:01:51.582Z,24.07
2023-05-05T01:02:51.635Z,24.10
2023-05-05T01:03:51.716Z,24.10
2023-05-05T01:04:51.681Z,24.08
2023-05-05T01:05:51.732Z,24.08
2023-05-05T01:06:51.771Z,24.10
2023-05-05T01:07:51.803Z,24.07
2023-05-05T01:08:51.847Z,24.11
2023-05-05T01:09:58.702Z,24.08
2023-05-05T01:10:52.925Z,24.08
2023-05-05T01:11:51.896Z,24.10
2023-05-05T01:12:51.953Z,24.08
2023-05-05T01:13:51.918Z,24.10
2023-05-05T01:14:51.922Z,24.07
2023-05-05T01:15:51.982Z,24.07
2023-05-05T01:16:51.929Z,24.08
2023-05-05T01:17:52.001Z,24.07
2023-05-05T01:18:51.953Z,24.08
2023-05-05T01:19:51.953Z,24.07
2023-05-05T01:20:51.989Z,24.07
2023-05-05T01:21:51.980Z,24.08
2023-05-05T01:22:51.986Z,24.05
2023-05-05T01:23:51.995Z,24.05
2023-05-05T01:24:51.999Z,24.05
2023-05-05T01:25:52.024Z,24.04
2023-05-05T01:26:52.078Z,24.05
2023-05-05T01:27:52.127Z,24.05
2023-05-05T01:28:52.171Z,24.05
2023-05-05T01:29:52.227Z,24.07
2023-05-05T01:30:52.288Z,24.05
2023-05-05T01:31:52.366Z,24.05
2023-05-05T01:32:52.426Z,24.05
2023-05-05T01:33:52.434Z,24.05
2023-05-05T01:34:52.478Z,24.05
2023-05-05T01:35:52.541Z,24.07
2023-05-05T01:36:52.577Z,24.05
2023-05-05T01:37:52.624Z,24.05
2023-05-05T01:38:52.700Z,24.05
2023-05-05T01:39:52.738Z,24.04
2023-05-05T01:40:52.796Z,24.07
2023-05-05T01:41:52.839Z,24.04
2023-05-05T01:42:52.893Z,24.05
2023-05-05T01:43:52.941Z,24.05
2023-05-05T01:44:52.996Z,24.03
2023-05-05T01:45:53.071Z,24.05
2023-05-05T01:46:53.089Z,24.07
2023-05-05T01:47:53.169Z,24.04
2023-05-05T01:48:53.196Z,24.05
2023-05-05T01:49:53.246Z,24.07
2023-05-05T01:50:53.304Z,24.04
2023-05-05T01:51:53.367Z,24.05
2023-05-05T01:52:53.414Z,24.08
2023-05-05T01:53:53.473Z,24.05
2023-05-05T01:54:53.520Z,24.05
2023-05-05T01:55:53.566Z,24.07
2023-05-05T01:56:53.633Z,24.05
2023-05-05T01:57:53.679Z,24.05
2023-05-05T01:58:53.736Z,24.05
2023-05-05T01:59:53.788Z,24.04
2023-05-05T02:00:53.950Z,24.04
2023-05-05T02:01:53.875Z,24.07
2023-05-05T02:02:53.966Z,24.03
2023-05-05T02:03:53.982Z,24.04
2023-05-05T02:04:54.018Z,24.03
2023-05-05T02:05:54.060Z,24.04
2023-05-05T02:06:54.108Z,24.03
2023-05-05T02:07:54.156Z,24.04
2023-05-05T02:08:54.200Z,24.03
2023-05-05T02:09:54.245Z,24.04
2023-05-05T02:10:54.304Z,24.04
2023-05-05T02:11:54.341Z,24.01
2023-05-05T02:12:54.428Z,24.03
2023-05-05T02:13:54.458Z,24.05
2023-05-05T02:14:54.500Z,24.03
2023-05-05T02:15:54.605Z,24.05
2023-05-05T02:16:54.613Z,24.03
2023-05-05T02:17:54.693Z,24.04
2023-05-05T02:18:54.710Z,24.01
2023-05-05T02:19:54.780Z,24.03
2023-05-05T02:20:54.815Z,24.03
2023-05-05T02:21:54.882Z,24.01
2023-05-05T02:22:54.945Z,24.01
2023-05-05T02:23:55.006Z,24.03
2023-05-05T02:24:55.053Z,24.03
2023-05-05T02:25:55.094Z,24.03
2023-05-05T02:26:55.153Z,24.03
2023-05-05T02:27:55.205Z,24.03
2023-05-05T02:28:55.278Z,24.03
2023-05-05T02:29:55.334Z,24.01
2023-05-05T02:30:55.385Z,24.03
2023-05-05T02:31:55.436Z,24.01
2023-05-05T02:32:55.541Z,24.00
2023-05-05T02:33:55.558Z,24.00
2023-05-05T02:34:55.622Z,24.03
2023-05-05T02:35:55.669Z,24.03
2023-05-05T02:36:55.729Z,24.01
2023-05-05T02:37:55.788Z,24.01
2023-05-05T02:38:55.846Z,24.00
2023-05-05T02:39:55.898Z,24.00
2023-05-05T02:40:55.946Z,24.00
2023-05-05T02:41:56.011Z,24.03
2023-05-05T02:42:56.089Z,24.01
2023-05-05T02:43:56.104Z,24.00
2023-05-05T02:44:56.159Z,24.00
2023-05-05T02:45:56.196Z,24.00
2023-05-05T02:46:56.254Z,24.03
2023-05-05T02:47:56.314Z,24.00
2023-05-05T02:48:56.352Z,24.01
2023-05-05T02:49:56.402Z,24.00
2023-05-05T02:50:56.455Z,23.99
2023-05-05T02:51:56.508Z,24.00
2023-05-05T02:52:56.575Z,23.99
2023-05-05T02:53:56.615Z,24.00
2023-05-05T02:54:56.669Z,23.99
2023-05-05T02:55:56.733Z,24.00
2023-05-05T02:56:56.791Z,23.99
2023-05-05T02:57:56.853Z,23.99
2023-05-05T02:58:56.917Z,24.00
2023-05-05T02:59:56.976Z,24.00
2023-05-05T03:00:57.012Z,24.01
2023-05-05T03:01:57.259Z,23.99
2023-05-05T03:02:57.206Z,23.99
2023-05-05T03:03:57.319Z,23.97
2023-05-05T03:04:57.234Z,23.99
2023-05-05T03:05:57.297Z,24.01
2023-05-05T03:06:57.356Z,23.97
2023-05-05T03:07:57.400Z,23.99
2023-05-05T03:08:57.482Z,24.00
2023-05-05T03:09:57.513Z,24.01
2023-05-05T03:10:57.585Z,23.99
2023-05-05T03:11:57.628Z,24.00
2023-05-05T03:12:57.713Z,23.97
2023-05-05T03:13:57.745Z,23.99
2023-05-05T03:14:57.805Z,23.97
2023-05-05T03:15:58.121Z,24.00
2023-05-05T03:16:57.920Z,23.99
2023-05-05T03:17:58.004Z,23.99
2023-05-05T03:18:58.023Z,23.97
2023-05-05T03:19:58.074Z,24.00
2023-05-05T03:20:58.137Z,23.97
2023-05-05T03:21:58.196Z,23.96
2023-05-05T03:22:58.247Z,23.94
2023-05-05T03:23:58.323Z,23.99
2023-05-05T03:24:58.375Z,23.99
2023-05-05T03:25:58.424Z,24.00
2023-05-05T03:26:58.480Z,23.97
2023-05-05T03:27:58.547Z,23.97
2023-05-05T03:28:58.603Z,23.99
2023-05-05T03:29:58.662Z,23.99
2023-05-05T03:30:58.717Z,23.96
2023-05-05T03:31:58.814Z,23.97
2023-05-05T03:32:58.893Z,23.97
2023-05-05T03:33:58.906Z,23.97
2023-05-05T03:34:58.965Z,23.99
2023-05-05T03:35:59.023Z,23.99
2023-05-05T03:36:59.077Z,23.96
2023-05-05T03:37:59.140Z,23.94
2023-05-05T03:38:59.196Z,23.97
2023-05-05T03:39:59.269Z,23.97
2023-05-05T03:40:59.350Z,23.96
2023-05-05T03:41:59.398Z,23.96
2023-05-05T03:42:59.440Z,23.94
2023-05-05T03:43:59.517Z,23.94
2023-05-05T03:44:59.566Z,23.96
2023-05-05T03:45:59.663Z,23.94
2023-05-05T03:46:59.680Z,23.96
2023-05-05T03:47:59.795Z,23.96
2023-05-05T03:48:59.804Z,23.96
2023-05-05T03:49:59.860Z,23.96
2023-05-05T03:51:00.612Z,23.97
2023-05-05T03:51:59.982Z,23.96
2023-05-05T03:53:00.058Z,23.96
2023-05-05T03:54:00.143Z,23.97
2023-05-05T03:55:00.205Z,23.97
2023-05-05T03:56:00.281Z,23.93
2023-05-05T03:57:00.298Z,23.96
2023-05-05T03:58:00.368Z,23.96
2023-05-05T03:59:00.443Z,23.99
2023-05-05T04:00:00.506Z,23.96
2023-05-05T04:01:00.551Z,23.96
2023-05-05T04:02:00.750Z,23.96
2023-05-05T04:03:01.192Z,23.93
2023-05-05T04:04:00.818Z,23.96
2023-05-05T04:05:00.809Z,23.94
2023-05-05T04:06:00.886Z,23.94
2023-05-05T04:07:00.941Z,23.93
2023-05-05T04:08:01.008Z,23.96
2023-05-05T04:09:01.063Z,23.96
2023-05-05T04:10:01.131Z,23.97
2023-05-05T04:11:01.194Z,23.99
2023-05-05T04:12:01.246Z,23.97
2023-05-05T04:13:01.343Z,23.93
2023-05-05T04:14:01.385Z,23.94
2023-05-05T04:15:01.426Z,23.96
2023-05-05T04:16:01.618Z,23.96
2023-05-05T04:17:01.544Z,23.94
2023-05-05T04:18:01.620Z,23.94
2023-05-05T04:19:01.665Z,23.96
2023-05-05T04:21:01.783Z,23.94
2023-05-05T04:22:01.829Z,23.96
2023-05-05T04:23:01.905Z,23.96
2023-05-05T04:24:01.967Z,23.96
2023-05-05T04:25:02.030Z,23.96
2023-05-05T04:26:02.087Z,23.94
2023-05-05T04:27:02.139Z,23.97
2023-05-05T04:28:02.208Z,23.97
2023-05-05T04:29:02.261Z,23.97
2023-05-05T04:30:02.326Z,23.99
2023-05-05T04:31:02.422Z,23.96
2023-05-05T04:32:02.477Z,23.96
2023-05-05T04:33:02.529Z,23.97
2023-05-05T04:34:02.574Z,23.97
2023-05-05T04:35:02.626Z,23.96
2023-05-05T04:36:02.704Z,23.96
2023-05-05T04:37:02.826Z,23.97
2023-05-05T04:38:02.830Z,23.94
2023-05-05T04:39:02.952Z,23.97
2023-05-05T04:40:02.959Z,23.94
2023-05-05T04:41:03.017Z,23.97
2023-05-05T04:42:03.074Z,23.97
2023-05-05T04:43:03.166Z,23.97
2023-05-05T04:44:03.204Z,23.97
2023-05-05T04:45:03.267Z,23.99
2023-05-05T04:46:03.376Z,23.96
2023-05-05T04:47:03.397Z,23.99
2023-05-05T04:48:03.470Z,24.00
2023-05-05T04:49:03.554Z,23.96
2023-05-05T04:50:03.583Z,23.97
2023-05-05T04:51:03.635Z,23.99
2023-05-05T04:52:03.692Z,23.99
2023-05-05T04:53:03.753Z,24.00
2023-05-05T04:54:03.818Z,23.99
2023-05-05T04:55:03.890Z,23.97
2023-05-05T04:56:03.931Z,23.97
2023-05-05T04:57:03.983Z,24.00
2023-05-05T04:58:04.049Z,23.99
2023-05-05T04:59:04.115Z,23.99
2023-05-05T05:00:04.159Z,24.00
2023-05-05T05:01:04.223Z,24.00
2023-05-05T05:02:04.337Z,24.03
2023-05-05T05:03:04.443Z,23.99
2023-05-05T05:04:04.640Z,24.01
2023-05-05T05:05:04.425Z,24.03
2023-05-05T05:06:04.479Z,24.01
2023-05-05T05:07:04.546Z,24.00
2023-05-05T05:08:04.599Z,24.03
2023-05-05T05:09:04.641Z,24.01
2023-05-05T05:10:04.717Z,24.03
2023-05-05T05:11:04.758Z,24.01
2023-05-05T05:12:04.824Z,24.00
2023-05-05T05:13:04.898Z,24.01
2023-05-05T05:14:04.919Z,24.04
2023-05-05T05:15:04.984Z,24.05
2023-05-05T05:16:05.080Z,24.03
2023-05-05T05:17:05.069Z,24.05
2023-05-05T05:18:05.176Z,24.05
2023-05-05T05:19:05.173Z,24.05
2023-05-05T05:20:05.334Z,24.08
2023-05-05T05:21:05.287Z,24.08
2023-05-05T05:22:05.347Z,24.07
2023-05-05T05:23:05.384Z,24.11
2023-05-05T05:24:05.427Z,24.10
2023-05-05T05:25:05.484Z,24.12
2023-05-05T05:26:05.531Z,24.15
2023-05-05T05:27:06.418Z,24.22
2023-05-05T05:28:10.627Z,24.25
2023-05-05T05:29:06.590Z,24.30
2023-05-05T05:30:05.713Z,24.30
2023-05-05T05:31:05.596Z,24.32
2023-05-05T05:32:05.674Z,24.36
2023-05-05T05:33:05.640Z,24.35
2023-05-05T05:34:05.612Z,24.35
2023-05-05T05:35:05.624Z,24.35
2023-05-05T05:36:05.644Z,24.34
2023-05-05T05:37:05.631Z,24.34
2023-05-05T05:38:05.626Z,24.41
2023-05-05T05:39:05.621Z,24.45
2023-05-05T05:40:05.670Z,24.50
2023-05-05T05:41:05.652Z,24.51
2023-05-05T05:42:05.644Z,24.48
2023-05-05T05:43:05.657Z,24.48
2023-05-05T05:44:05.656Z,24.51
2023-05-05T05:45:05.655Z,24.50
2023-05-05T05:46:08.225Z,24.52
2023-05-05T05:47:05.686Z,24.54
2023-05-05T05:48:05.706Z,24.51
2023-05-05T05:49:05.681Z,24.54
2023-05-05T05:50:05.838Z,24.51
2023-05-05T05:51:05.696Z,24.52
2023-05-05T05:52:05.702Z,24.51
2023-05-05T05:53:05.708Z,24.54
2023-05-05T05:54:05.720Z,24.52
2023-05-05T05:55:05.727Z,24.52
2023-05-05T05:56:05.729Z,24.55
2023-05-05T05:57:05.736Z,24.55
2023-05-05T05:58:05.736Z,24.58
2023-05-05T05:59:06.129Z,24.62
2023-05-05T06:00:05.881Z,24.65
2023-05-05T06:01:05.760Z,24.68
2023-05-05T06:02:05.791Z,24.71
2023-05-05T06:03:05.878Z,24.73
2023-05-05T06:04:05.784Z,24.75
2023-05-05T06:05:05.757Z,24.75
2023-05-05T06:06:05.755Z,24.78
2023-05-05T06:07:05.778Z,24.79
2023-05-05T06:08:05.776Z,24.82
2023-05-05T06:09:05.774Z,24.85
2023-05-05T06:10:22.900Z,24.85
2023-05-05T06:11:06.769Z,24.87
2023-05-05T06:12:05.798Z,24.90
2023-05-05T06:13:05.828Z,24.90
2023-05-05T06:14:05.787Z,24.93
2023-05-05T06:15:05.773Z,24.93
2023-05-05T06:16:05.797Z,24.96
2023-05-05T06:17:05.782Z,24.99
2023-05-05T06:18:05.824Z,24.97
2023-05-05T06:19:05.785Z,24.99
2023-05-05T06:20:05.880Z,25.03
2023-05-05T06:21:05.778Z,25.06
2023-05-05T06:22:05.786Z,25.07
2023-05-05T06:23:05.800Z,25.09
2023-05-05T06:24:05.931Z,25.12
2023-05-05T06:25:05.947Z,25.12
2023-05-05T06:26:05.785Z,25.12
2023-05-05T06:27:05.804Z,25.13
2023-05-05T06:28:05.869Z,25.16
2023-05-05T06:29:05.790Z,25.17
2023-05-05T06:30:06.148Z,25.14
2023-05-05T06:31:05.921Z,25.14
2023-05-05T06:32:06.010Z,25.19
2023-05-05T06:33:06.082Z,25.24
2023-05-05T06:34:06.064Z,25.29
2023-05-05T06:35:06.129Z,25.32
2023-05-05T06:36:07.082Z,25.37
2023-05-05T06:37:06.236Z,25.47
2023-05-05T06:38:06.268Z,25.53
2023-05-05T06:39:06.311Z,25.57
2023-05-05T06:40:06.400Z,25.63
2023-05-05T06:41:06.373Z,25.68
2023-05-05T06:42:06.385Z,25.73
2023-05-05T06:43:06.418Z,25.77
2023-05-05T06:44:06.445Z,25.80
2023-05-05T06:45:06.483Z,25.88
2023-05-05T06:46:06.475Z,25.88
2023-05-05T06:47:06.573Z,25.94
2023-05-05T06:48:06.514Z,25.97
2023-05-05T06:49:06.510Z,25.97
2023-05-05T06:50:06.782Z,26.01
2023-05-05T06:51:06.679Z,25.99
2023-05-05T06:52:06.540Z,26.04
2023-05-05T06:53:06.549Z,26.01
2023-05-05T06:54:06.551Z,26.07
2023-05-05T06:55:06.549Z,26.09
2023-05-05T06:56:06.554Z,26.08
2023-05-05T06:57:06.752Z,26.11
2023-05-05T06:58:06.603Z,26.19
2023-05-05T06:59:06.535Z,26.24
2023-05-05T07:00:06.795Z,26.32
2023-05-05T07:01:06.582Z,26.32
2023-05-05T07:02:06.522Z,26.36
2023-05-05T07:03:06.523Z,26.35
2023-05-05T07:04:06.596Z,26.35
2023-05-05T07:05:06.493Z,26.32
2023-05-05T07:06:06.493Z,26.35
2023-05-05T07:07:06.463Z,26.32
2023-05-05T07:08:06.448Z,26.34
2023-05-05T07:09:06.433Z,26.34
2023-05-05T07:10:06.633Z,26.35
2023-05-05T07:11:06.406Z,26.35
2023-05-05T07:12:06.394Z,26.38
2023-05-05T07:13:06.487Z,26.36
2023-05-05T07:14:06.363Z,26.35
2023-05-05T07:15:19.200Z,26.36
2023-05-05T07:16:07.353Z,26.32
2023-05-05T07:17:06.295Z,26.31
2023-05-05T07:18:06.392Z,26.27
2023-05-05T07:19:06.260Z,26.29
2023-05-05T07:20:06.419Z,26.34
2023-05-05T07:21:06.232Z,26.36
2023-05-05T07:22:06.201Z,26.31
2023-05-05T07:23:06.179Z,26.28
2023-05-05T07:24:06.165Z,26.27
2023-05-05T07:25:06.148Z,26.22
2023-05-05T07:26:06.131Z,26.15
2023-05-05T07:27:06.127Z,26.11
2023-05-05T07:28:06.110Z,26.02
2023-05-05T07:29:06.269Z,25.95
2023-05-05T07:30:11.245Z,25.91
2023-05-05T07:31:07.137Z,25.88
2023-05-05T07:32:06.153Z,25.87
2023-05-05T07:33:06.161Z,25.78
2023-05-05T07:34:06.113Z,25.77
2023-05-05T07:35:06.099Z,25.75
2023-05-05T07:36:06.098Z,25.68
2023-05-05T07:37:06.084Z,25.68
2023-05-05T07:38:06.072Z,25.70
2023-05-05T07:39:06.078Z,25.70
2023-05-05T07:40:06.403Z,25.71
2023-05-05T07:41:06.058Z,25.70
2023-05-05T07:42:06.049Z,25.71
2023-05-05T07:43:06.088Z,25.73
2023-05-05T07:44:06.122Z,25.73
2023-05-05T07:45:06.155Z,25.74
2023-05-05T07:46:06.232Z,25.78
2023-05-05T07:47:06.206Z,25.80
2023-05-05T07:48:06.310Z,25.84
2023-05-05T07:49:06.280Z,25.83
2023-05-05T07:50:06.742Z,25.88
2023-05-05T07:51:06.341Z,25.87
2023-05-05T07:52:06.383Z,25.92
2023-05-05T07:53:14.641Z,25.97
2023-05-05T07:54:07.397Z,25.94
2023-05-05T07:55:06.397Z,25.97
2023-05-05T07:56:06.357Z,25.97
2023-05-05T07:57:06.351Z,26.01
2023-05-05T07:58:07.090Z,26.01
2023-05-05T07:59:07.161Z,26.01
2023-05-05T08:00:07.314Z,26.04
2023-05-05T08:01:06.496Z,26.05
2023-05-05T08:02:06.404Z,26.05
2023-05-05T08:03:07.774Z,26.04
2023-05-05T08:04:07.173Z,26.07
2023-05-05T08:05:06.671Z,26.08
2023-05-05T08:06:06.231Z,26.07
2023-05-05T08:07:06.212Z,26.08
2023-05-05T08:08:06.187Z,26.08
2023-05-05T08:09:06.191Z,26.07
2023-05-05T08:10:06.148Z,26.07
2023-05-05T08:11:06.141Z,26.05
2023-05-05T08:12:06.120Z,26.01
2023-05-05T08:13:06.224Z,25.94
2023-05-05T08:15:05.518Z,25.80
2023-05-05T08:16:05.389Z,25.78
2023-05-05T08:17:05.382Z,25.71
2023-05-05T08:18:05.382Z,25.73
2023-05-05T08:19:14.619Z,25.73
2023-05-05T08:20:06.239Z,25.71
2023-05-05T08:21:05.199Z,25.73
2023-05-05T08:22:05.180Z,25.70
2023-05-05T08:23:05.157Z,25.70
2023-05-05T08:24:05.134Z,25.71
2023-05-05T08:25:05.148Z,25.68
2023-05-05T08:26:05.048Z,25.64
2023-05-05T08:27:05.034Z,25.64
2023-05-05T08:28:05.013Z,25.64
2023-05-05T08:29:04.987Z,25.67
2023-05-05T08:30:04.976Z,25.67
2023-05-05T08:31:05.587Z,25.70
2023-05-05T08:32:05.002Z,25.75
2023-05-05T08:33:05.148Z,25.80
2023-05-05T08:34:05.035Z,25.83
2023-05-05T08:35:05.203Z,25.88
2023-05-05T08:36:05.043Z,25.89
2023-05-05T08:37:05.079Z,25.92
2023-05-05T08:38:05.092Z,25.95
2023-05-05T08:39:05.058Z,25.98
2023-05-05T08:40:05.053Z,26.02
2023-05-05T08:41:05.051Z,26.07
2023-05-05T08:42:05.051Z,26.11
2023-05-05T08:43:05.067Z,26.12
2023-05-05T08:44:05.028Z,26.17
2023-05-05T08:45:05.050Z,26.19
2023-05-05T08:46:04.997Z,26.21
2023-05-05T08:47:05.004Z,26.24
2023-05-05T08:48:05.150Z,26.27
2023-05-05T08:49:05.064Z,26.31
2023-05-05T08:50:04.937Z,26.34
2023-05-05T08:51:05.660Z,26.36
2023-05-05T08:52:04.863Z,26.38
2023-05-05T08:53:04.854Z,26.38
2023-05-05T08:54:04.814Z,26.40
2023-05-05T08:55:04.866Z,26.42
2023-05-05T08:56:04.756Z,26.45
2023-05-05T08:57:04.745Z,26.46
2023-05-05T08:58:04.685Z,26.45
2023-05-05T08:59:04.684Z,26.48
2023-05-05T09:00:04.641Z,26.52
2023-05-05T09:01:04.623Z,26.49
2023-05-05T09:02:04.618Z,26.52
2023-05-05T09:03:04.715Z,26.55
2023-05-05T09:04:04.526Z,26.55
2023-05-05T09:05:04.557Z,26.55
2023-05-05T09:06:04.501Z,26.58
2023-05-05T09:07:04.429Z,26.58
2023-05-05T09:08:04.410Z,26.58
2023-05-05T09:09:04.377Z,26.58
2023-05-05T09:10:04.365Z,26.59
2023-05-05T09:11:04.327Z,26.62
2023-05-05T09:12:04.314Z,26.60
2023-05-05T09:13:04.289Z,26.62
2023-05-05T09:14:04.230Z,26.64
2023-05-05T09:15:04.204Z,26.62
2023-05-05T09:16:04.156Z,26.50
2023-05-05T09:17:04.229Z,26.52
2023-05-05T09:18:04.159Z,26.53
2023-05-05T09:19:04.069Z,26.53
2023-05-05T09:20:04.054Z,26.50
2023-05-05T09:21:04.106Z,26.50
2023-05-05T09:22:03.950Z,26.50
2023-05-05T09:23:03.914Z,26.48
2023-05-05T09:24:08.203Z,26.50
2023-05-05T09:25:04.886Z,26.48
2023-05-05T09:26:03.783Z,26.46
2023-05-05T09:27:03.754Z,26.43
2023-05-05T09:28:03.712Z,26.45
2023-05-05T09:29:03.646Z,26.43
2023-05-05T09:30:03.635Z,26.40
2023-05-05T09:31:03.593Z,26.45
2023-05-05T09:32:03.559Z,26.39
2023-05-05T09:33:03.534Z,26.43
2023-05-05T09:34:03.435Z,26.42
2023-05-05T09:35:03.389Z,26.42
2023-05-05T09:36:03.358Z,26.39
2023-05-05T09:37:03.451Z,26.43
2023-05-05T09:38:03.276Z,26.43
2023-05-05T09:39:03.224Z,26.48
2023-05-05T09:40:03.186Z,26.49
2023-05-05T09:41:03.139Z,26.52
2023-05-05T09:42:03.093Z,26.52
2023-05-05T09:43:03.062Z,26.52
2023-05-05T09:44:02.981Z,26.52
2023-05-05T09:45:02.949Z,26.50
2023-05-05T09:46:02.938Z,26.53
2023-05-05T09:47:05.276Z,26.52
2023-05-05T09:48:02.941Z,26.56
2023-05-05T09:49:02.796Z,26.56
2023-05-05T09:50:02.738Z,26.53
2023-05-05T09:51:02.687Z,26.55
2023-05-05T09:52:02.677Z,26.55
2023-05-05T09:53:03.569Z,26.52
2023-05-05T09:54:02.584Z,26.55
2023-05-05T09:55:02.541Z,26.56
2023-05-05T09:56:02.496Z,26.58
2023-05-05T09:57:02.476Z,26.59
2023-05-05T09:58:02.435Z,26.62
2023-05-05T09:59:02.367Z,26.59
2023-05-05T10:00:03.322Z,26.63
2023-05-05T10:01:02.314Z,26.66
2023-05-05T10:02:02.318Z,26.69
2023-05-05T10:03:02.272Z,26.69
2023-05-05T10:04:02.135Z,26.70
2023-05-05T10:05:02.533Z,26.70
2023-05-05T10:06:02.052Z,26.72
2023-05-05T10:07:02.670Z,26.73
2023-05-05T10:08:01.957Z,26.70
2023-05-05T10:09:01.919Z,26.75
2023-05-05T10:10:01.873Z,26.72
2023-05-05T10:11:01.849Z,26.69
2023-05-05T10:12:01.794Z,26.69
2023-05-05T10:13:01.885Z,26.64
2023-05-05T10:14:02.733Z,26.63
2023-05-05T10:15:01.678Z,26.60
2023-05-05T10:16:01.737Z,26.62
2023-05-05T10:17:02.109Z,26.59
2023-05-05T10:18:07.744Z,26.59
2023-05-05T10:19:02.540Z,26.56
2023-05-05T10:20:01.508Z,26.55
2023-05-05T10:21:01.464Z,26.55
2023-05-05T10:22:01.433Z,26.52
2023-05-05T10:23:01.394Z,26.49
2023-05-05T10:24:01.355Z,26.48
2023-05-05T10:25:01.335Z,26.48
2023-05-05T10:26:01.287Z,26.43
2023-05-05T10:27:01.261Z,26.42
2023-05-05T10:28:01.227Z,26.40
2023-05-05T10:29:01.197Z,26.40
2023-05-05T10:30:01.200Z,26.40
2023-05-05T10:31:01.171Z,26.38
2023-05-05T10:32:01.148Z,26.38
2023-05-05T10:33:17.291Z,26.38
2023-05-05T10:34:02.155Z,26.36
2023-05-05T10:35:02.054Z,26.35
2023-05-05T10:36:00.987Z,26.36
2023-05-05T10:37:00.956Z,26.35
2023-05-05T10:38:00.942Z,26.32
2023-05-05T10:39:00.905Z,26.32
2023-05-05T10:40:00.850Z,26.28
2023-05-05T10:41:00.881Z,26.31
2023-05-05T10:42:01.555Z,26.25
2023-05-05T10:43:00.758Z,26.27
2023-05-05T10:44:02.970Z,26.28
2023-05-05T10:45:01.185Z,26.27
2023-05-05T10:46:00.785Z,26.25
2023-05-05T10:47:00.614Z,26.27
2023-05-05T10:48:00.625Z,26.27
2023-05-05T10:49:00.591Z,26.24
2023-05-05T10:50:00.542Z,26.24
2023-05-05T10:51:00.466Z,26.24
2023-05-05T10:52:00.449Z,26.21
2023-05-05T10:53:00.428Z,26.21
2023-05-05T10:54:00.391Z,26.21
2023-05-05T10:55:00.343Z,26.19
2023-05-05T10:56:00.307Z,26.18
2023-05-05T10:57:00.291Z,26.15
2023-05-05T10:58:00.256Z,26.17
2023-05-05T10:59:00.931Z,26.17
2023-05-05T11:00:00.274Z,26.12
2023-05-05T11:01:00.224Z,26.17
2023-05-05T11:02:00.142Z,26.14
2023-05-05T11:03:00.176Z,26.12
2023-05-05T11:04:00.074Z,26.12
2023-05-05T11:05:00.024Z,26.11
2023-05-05T11:05:59.982Z,26.11
2023-05-05T11:06:59.954Z,26.09
2023-05-05T11:07:59.952Z,26.09
2023-05-05T11:08:59.900Z,26.08
2023-05-05T11:09:59.871Z,26.09
2023-05-05T11:10:59.856Z,26.08
2023-05-05T11:11:59.823Z,26.05
2023-05-05T11:12:59.895Z,26.05
2023-05-05T11:13:59.755Z,26.05
2023-05-05T11:14:59.717Z,26.05
2023-05-05T11:15:59.688Z,26.04
2023-05-05T11:16:59.704Z,26.04
2023-05-05T11:17:59.704Z,26.02
2023-05-05T11:18:59.774Z,26.02
2023-05-05T11:19:59.643Z,26.02
2023-05-05T11:20:59.599Z,26.04
2023-05-05T11:21:59.542Z,26.02
2023-05-05T11:22:59.552Z,26.02
2023-05-05T11:23:59.472Z,26.02
2023-05-05T11:24:59.443Z,26.01
2023-05-05T11:25:59.421Z,26.01
2023-05-05T11:26:59.425Z,26.01
2023-05-05T11:27:59.361Z,26.02
2023-05-05T11:28:59.384Z,25.98
2023-05-05T11:29:59.313Z,26.02
2023-05-05T11:30:59.771Z,26.01
2023-05-05T11:31:59.309Z,25.99
2023-05-05T11:32:59.354Z,25.99
2023-05-05T11:33:59.321Z,25.98
2023-05-05T11:34:59.336Z,25.99
2023-05-05T11:35:59.347Z,25.99
2023-05-05T11:36:59.359Z,26.01
2023-05-05T11:37:59.375Z,25.99
2023-05-05T11:38:59.387Z,25.99
2023-05-05T11:39:59.396Z,25.98
2023-05-05T11:40:59.400Z,25.98
2023-05-05T11:41:59.422Z,26.01
2023-05-05T11:42:59.442Z,25.97
2023-05-05T11:43:59.463Z,25.99
2023-05-05T11:44:59.544Z,25.98
2023-05-05T11:45:59.516Z,25.97
2023-05-05T11:46:59.496Z,25.97
2023-05-05T11:47:59.638Z,25.97
2023-05-05T11:48:59.549Z,25.98
2023-05-05T11:49:59.537Z,25.98
2023-05-05T11:50:59.519Z,25.98
2023-05-05T11:51:59.560Z,25.97
2023-05-05T11:52:59.523Z,25.95
2023-05-05T11:53:59.531Z,25.97
2023-05-05T11:54:59.587Z,25.95
2023-05-05T11:55:59.541Z,25.95
2023-05-05T11:56:59.573Z,25.95
2023-05-05T11:57:59.570Z,25.95
2023-05-05T11:58:59.576Z,25.95
2023-05-05T11:59:59.614Z,25.94
2023-05-05T12:00:59.587Z,25.97
2023-05-05T12:01:59.595Z,25.98
2023-05-05T12:02:59.656Z,25.95
2023-05-05T12:03:59.767Z,25.98
2023-05-05T12:04:59.715Z,25.98
2023-05-05T12:05:59.608Z,25.97
2023-05-05T12:06:59.625Z,25.97
2023-05-05T12:07:59.656Z,25.97
2023-05-05T12:08:59.624Z,25.98
2023-05-05T12:09:59.634Z,25.97
2023-05-05T12:10:59.631Z,25.99
2023-05-05T12:11:59.669Z,25.98
2023-05-05T12:12:59.703Z,25.98
2023-05-05T12:13:59.660Z,25.97
2023-05-05T12:14:59.673Z,25.97
2023-05-05T12:15:59.678Z,25.98
2023-05-05T12:16:59.795Z,25.97
2023-05-05T12:18:02.323Z,25.98
2023-05-05T12:18:59.644Z,25.98
2023-05-05T12:19:59.616Z,25.98
2023-05-05T12:20:59.589Z,25.97
2023-05-05T12:21:59.544Z,25.99
2023-05-05T12:22:59.508Z,25.99
2023-05-05T12:23:59.465Z,25.99
2023-05-05T12:24:59.435Z,25.98
2023-05-05T12:25:59.418Z,25.98
2023-05-05T12:26:59.372Z,25.99
2023-05-05T12:27:59.333Z,26.01
2023-05-05T12:28:59.292Z,25.98
2023-05-05T12:29:59.255Z,25.99
2023-05-05T12:30:59.263Z,25.99
2023-05-05T12:31:59.225Z,25.98
2023-05-05T12:32:59.274Z,25.95
2023-05-05T12:33:59.123Z,25.97
2023-05-05T12:34:59.088Z,25.95
2023-05-05T12:35:59.040Z,25.99
2023-05-05T12:36:59.006Z,25.98
2023-05-05T12:37:58.956Z,25.98
2023-05-05T12:38:58.919Z,25.95
2023-05-05T12:39:58.897Z,25.97
2023-05-05T12:40:58.832Z,25.97
2023-05-05T12:41:58.799Z,25.99
2023-05-05T12:42:58.754Z,25.97
2023-05-05T12:43:58.734Z,25.98
2023-05-05T12:44:58.683Z,25.98
2023-05-05T12:45:58.675Z,25.97
2023-05-05T12:46:58.596Z,25.97
2023-05-05T12:47:58.590Z,25.97
2023-05-05T12:48:58.525Z,25.95
2023-05-05T12:49:58.494Z,25.97
2023-05-05T12:50:58.461Z,25.95
2023-05-05T12:51:58.442Z,25.95
2023-05-05T12:52:58.379Z,25.95
2023-05-05T12:53:58.329Z,25.95
2023-05-05T12:54:58.298Z,25.95